sensor_id;sensor_type;location;lat;lon;timestamp;pressure;altitude;pressure_sealevel;temperature;humidity
72961;BME280;61141;46.204;19.774;2023-10-08T00:01:46;100655.84;;;15.69;81.16
72961;BME280;61141;46.204;19.774;2023-10-08T00:04:49;100659.78;;;15.72;81.16
72961;BME280;61141;46.204;19.774;2023-10-08T00:07:56;100643.59;;;15.70;80.99
72961;BME280;61141;46.204;19.774;2023-10-08T00:10:59;100644.00;;;15.72;81.14
72961;BME280;61141;46.204;19.774;2023-10-08T00:14:09;100634.53;;;15.70;80.96
72961;BME280;61141;46.204;19.774;2023-10-08T00:17:13;100632.94;;;15.72;80.98
72961;BME280;61141;46.204;19.774;2023-10-08T00:20:16;100623.06;;;15.71;80.88
72961;BME280;61141;46.204;19.774;2023-10-08T00:23:28;100616.37;;;15.69;80.87
72961;BME280;61141;46.204;19.774;2023-10-08T00:26:33;100617.16;;;15.66;80.73
72961;BME280;61141;46.204;19.774;2023-10-08T00:29:38;100610.06;;;15.58;81.20
72961;BME280;61141;46.204;19.774;2023-10-08T00:32:42;100611.66;;;15.55;81.58
72961;BME280;61141;46.204;19.774;2023-10-08T00:35:45;100624.28;;;15.56;81.41
72961;BME280;61141;46.204;19.774;2023-10-08T00:38:50;100627.06;;;15.56;81.36
72961;BME280;61141;46.204;19.774;2023-10-08T00:41:55;100601.81;;;15.47;81.30
72961;BME280;61141;46.204;19.774;2023-10-08T00:45:02;100617.19;;;15.62;80.98
72961;BME280;61141;46.204;19.774;2023-10-08T00:48:08;100612.44;;;15.66;81.27
72961;BME280;61141;46.204;19.774;2023-10-08T00:51:11;100611.62;;;15.69;80.91
72961;BME280;61141;46.204;19.774;2023-10-08T00:54:27;100604.94;;;15.70;81.08
72961;BME280;61141;46.204;19.774;2023-10-08T00:57:55;100597.84;;;15.69;80.89
72961;BME280;61141;46.204;19.774;2023-10-08T01:01:01;100596.66;;;15.70;81.02
72961;BME280;61141;46.204;19.774;2023-10-08T01:04:05;100590.31;;;15.77;80.55
72961;BME280;61141;46.204;19.774;2023-10-08T01:07:15;100587.97;;;15.75;80.64
72961;BME280;61141;46.204;19.774;2023-10-08T01:10:21;100587.94;;;15.82;80.34
72961;BME280;61141;46.204;19.774;2023-10-08T01:13:24;100578.88;;;15.78;80.31
72961;BME280;61141;46.204;19.774;2023-10-08T01:16:29;100587.94;;;15.86;80.27
72961;BME280;61141;46.204;19.774;2023-10-08T01:19:36;100583.56;;;15.88;80.17
72961;BME280;61141;46.204;19.774;2023-10-08T01:22:44;100583.19;;;15.86;79.99
72961;BME280;61141;46.204;19.774;2023-10-08T01:25:48;100588.72;;;15.86;80.26
72961;BME280;61141;46.204;19.774;2023-10-08T01:28:55;100583.97;;;15.94;79.58
72961;BME280;61141;46.204;19.774;2023-10-08T01:31:58;100579.59;;;15.97;79.51
72961;BME280;61141;46.204;19.774;2023-10-08T01:35:01;100589.09;;;15.96;79.32
72961;BME280;61141;46.204;19.774;2023-10-08T01:38:06;100594.22;;;15.94;79.51
72961;BME280;61141;46.204;19.774;2023-10-08T01:41:10;100578.44;;;15.94;79.13
72961;BME280;61141;46.204;19.774;2023-10-08T01:44:22;100567.00;;;15.96;78.99
72961;BME280;61141;46.204;19.774;2023-10-08T01:47:27;100576.50;;;15.80;79.50
72961;BME280;61141;46.204;19.774;2023-10-08T01:50:30;100563.88;;;15.79;79.76
72961;BME280;61141;46.204;19.774;2023-10-08T01:53:38;100558.38;;;15.79;79.78
72961;BME280;61141;46.204;19.774;2023-10-08T01:56:41;100555.97;;;15.78;79.99
72961;BME280;61141;46.204;19.774;2023-10-08T01:59:45;100546.94;;;15.63;80.29
72961;BME280;61141;46.204;19.774;2023-10-08T02:02:51;100556.41;;;15.69;80.63
72961;BME280;61141;46.204;19.774;2023-10-08T02:05:54;100556.78;;;15.75;80.67
72961;BME280;61141;46.204;19.774;2023-10-08T02:09:02;100553.22;;;15.74;80.69
72961;BME280;61141;46.204;19.774;2023-10-08T02:12:11;100561.88;;;15.80;80.86
72961;BME280;61141;46.204;19.774;2023-10-08T02:15:16;100558.75;;;15.74;80.94
72961;BME280;61141;46.204;19.774;2023-10-08T02:18:20;100552.09;;;15.68;81.39
72961;BME280;61141;46.204;19.774;2023-10-08T02:21:26;100554.84;;;15.65;81.60
72961;BME280;61141;46.204;19.774;2023-10-08T02:24:30;100555.22;;;15.63;81.82
72961;BME280;61141;46.204;19.774;2023-10-08T02:27:33;100549.72;;;15.60;82.16
72961;BME280;61141;46.204;19.774;2023-10-08T02:30:36;100542.63;;;15.59;82.46
72961;BME280;61141;46.204;19.774;2023-10-08T02:33:41;100535.50;;;15.58;82.70
72961;BME280;61141;46.204;19.774;2023-10-08T02:36:44;100530.41;;;15.56;82.83
72961;BME280;61141;46.204;19.774;2023-10-08T02:39:49;100535.50;;;15.58;83.63
72961;BME280;61141;46.204;19.774;2023-10-08T02:42:54;100521.72;;;15.65;82.78
72961;BME280;61141;46.204;19.774;2023-10-08T02:46:03;100518.53;;;15.66;83.19
72961;BME280;61141;46.204;19.774;2023-10-08T02:49:19;100506.69;;;15.66;83.39
72961;BME280;61141;46.204;19.774;2023-10-08T02:52:25;100522.88;;;15.67;83.24
72961;BME280;61141;46.204;19.774;2023-10-08T02:55:29;100516.13;;;15.79;82.84
72961;BME280;61141;46.204;19.774;2023-10-08T02:58:37;100513.34;;;15.82;82.70
72961;BME280;61141;46.204;19.774;2023-10-08T03:01:41;100518.06;;;15.89;82.19
72961;BME280;61141;46.204;19.774;2023-10-08T03:04:45;100512.53;;;15.89;82.18
72961;BME280;61141;46.204;19.774;2023-10-08T03:07:48;100498.34;;;15.83;81.73
72961;BME280;61141;46.204;19.774;2023-10-08T03:10:53;100513.72;;;15.92;81.64
72961;BME280;61141;46.204;19.774;2023-10-08T03:13:59;100513.28;;;16.04;80.86
72961;BME280;61141;46.204;19.774;2023-10-08T03:17:02;100504.13;;;16.10;80.08
72961;BME280;61141;46.204;19.774;2023-10-08T03:20:10;100499.38;;;16.18;79.34
72961;BME280;61141;46.204;19.774;2023-10-08T03:23:32;100497.00;;;16.16;79.40
72961;BME280;61141;46.204;19.774;2023-10-08T03:26:39;100505.22;;;16.34;77.96
72961;BME280;61141;46.204;19.774;2023-10-08T03:29:42;100486.28;;;16.29;78.05
72961;BME280;61141;46.204;19.774;2023-10-08T03:32:46;100482.59;;;16.46;77.11
72961;BME280;61141;46.204;19.774;2023-10-08T03:36:01;100489.78;;;16.40;77.18
72961;BME280;61141;46.204;19.774;2023-10-08T03:39:07;100496.03;;;16.48;76.68
72961;BME280;61141;46.204;19.774;2023-10-08T03:42:22;100496.03;;;16.51;76.94
72961;BME280;61141;46.204;19.774;2023-10-08T03:45:26;100488.97;;;16.39;77.51
72961;BME280;61141;46.204;19.774;2023-10-08T03:48:47;100493.72;;;16.39;77.50
72961;BME280;61141;46.204;19.774;2023-10-08T03:52:00;100484.25;;;16.40;77.52
72961;BME280;61141;46.204;19.774;2023-10-08T03:55:04;100494.06;;;16.48;77.22
72961;BME280;61141;46.204;19.774;2023-10-08T03:58:16;100486.94;;;16.47;77.36
72961;BME280;61141;46.204;19.774;2023-10-08T04:01:32;100485.72;;;16.52;76.86
72961;BME280;61141;46.204;19.774;2023-10-08T04:04:36;100497.16;;;16.57;77.30
72961;BME280;61141;46.204;19.774;2023-10-08T04:07:57;100494.37;;;16.61;77.11
72961;BME280;61141;46.204;19.774;2023-10-08T04:11:03;100480.16;;;16.62;77.18
72961;BME280;61141;46.204;19.774;2023-10-08T04:14:25;100489.72;;;16.54;77.82
72961;BME280;61141;46.204;19.774;2023-10-08T04:17:28;100495.63;;;16.49;78.11
72961;BME280;61141;46.204;19.774;2023-10-08T04:20:32;100501.16;;;16.49;78.29
72961;BME280;61141;46.204;19.774;2023-10-08T04:23:42;100493.66;;;16.50;78.15
72961;BME280;61141;46.204;19.774;2023-10-08T04:26:47;100504.28;;;16.58;78.06
72961;BME280;61141;46.204;19.774;2023-10-08T04:29:52;100499.56;;;16.55;78.21
72961;BME280;61141;46.204;19.774;2023-10-08T04:32:55;100499.19;;;16.57;78.00
72961;BME280;61141;46.204;19.774;2023-10-08T04:36:01;100495.16;;;16.65;77.41
72961;BME280;61141;46.204;19.774;2023-10-08T04:39:04;100505.47;;;16.57;77.87
72961;BME280;61141;46.204;19.774;2023-10-08T04:42:16;100495.19;;;16.61;77.46
72961;BME280;61141;46.204;19.774;2023-10-08T04:45:28;100496.78;;;16.59;77.52
72961;BME280;61141;46.204;19.774;2023-10-08T04:48:36;100497.47;;;16.73;76.92
72961;BME280;61141;46.204;19.774;2023-10-08T04:51:39;100495.09;;;16.72;77.08
72961;BME280;61141;46.204;19.774;2023-10-08T04:54:47;100473.69;;;16.79;76.55
72961;BME280;61141;46.204;19.774;2023-10-08T04:57:57;100470.16;;;16.79;76.43
72961;BME280;61141;46.204;19.774;2023-10-08T05:01:00;100461.88;;;16.75;76.56
72961;BME280;61141;46.204;19.774;2023-10-08T05:04:20;100468.97;;;16.76;76.64
72961;BME280;61141;46.204;19.774;2023-10-08T05:07:58;100459.47;;;16.77;76.74
72961;BME280;61141;46.204;19.774;2023-10-08T05:11:03;100453.94;;;16.81;76.58
72961;BME280;61141;46.204;19.774;2023-10-08T05:14:29;100442.06;;;16.80;76.75
72961;BME280;61141;46.204;19.774;2023-10-08T05:17:34;100443.66;;;16.81;76.70
72961;BME280;61141;46.204;19.774;2023-10-08T05:20:50;100442.03;;;16.84;76.79
72961;BME280;61141;46.204;19.774;2023-10-08T05:23:53;100441.19;;;16.90;76.43
72961;BME280;61141;46.204;19.774;2023-10-08T05:27:10;100457.44;;;16.85;76.69
72961;BME280;61141;46.204;19.774;2023-10-08T05:30:31;100455.41;;;16.92;76.34
72961;BME280;61141;46.204;19.774;2023-10-08T05:33:42;100462.84;;;16.99;76.59
72961;BME280;61141;46.204;19.774;2023-10-08T05:37:03;100470.34;;;16.98;76.63
72961;BME280;61141;46.204;19.774;2023-10-08T05:40:09;100460.87;;;16.99;76.33
72961;BME280;61141;46.204;19.774;2023-10-08T05:43:29;100455.41;;;16.92;76.95
72961;BME280;61141;46.204;19.774;2023-10-08T05:46:42;100455.00;;;16.90;77.26
72961;BME280;61141;46.204;19.774;2023-10-08T05:49:57;100461.75;;;16.89;77.39
72961;BME280;61141;46.204;19.774;2023-10-08T05:53:18;100460.19;;;16.88;77.60
72961;BME280;61141;46.204;19.774;2023-10-08T05:56:43;100455.34;;;16.96;77.67
72961;BME280;61141;46.204;19.774;2023-10-08T06:00:07;100456.03;;;17.07;77.68
72961;BME280;61141;46.204;19.774;2023-10-08T06:03:09;100449.06;;;17.33;76.10
72961;BME280;61141;46.204;19.774;2023-10-08T06:06:13;100465.50;;;17.50;75.34
72961;BME280;61141;46.204;19.774;2023-10-08T06:09:18;100457.09;;;17.61;75.09
72961;BME280;61141;46.204;19.774;2023-10-08T06:12:21;100458.44;;;17.80;74.08
72961;BME280;61141;46.204;19.774;2023-10-08T06:19:02;100448.03;;;17.87;73.84
72961;BME280;61141;46.204;19.774;2023-10-08T06:22:05;100448.00;;;17.91;73.59
72961;BME280;61141;46.204;19.774;2023-10-08T06:25:08;100450.75;;;17.91;73.49
72961;BME280;61141;46.204;19.774;2023-10-08T06:28:26;100459.81;;;17.95;73.65
72961;BME280;61141;46.204;19.774;2023-10-08T06:31:29;100459.81;;;17.95;73.66
72961;BME280;61141;46.204;19.774;2023-10-08T06:34:35;100454.97;;;18.02;72.61
72961;BME280;61141;46.204;19.774;2023-10-08T06:37:38;100460.25;;;18.20;71.05
72961;BME280;61141;46.204;19.774;2023-10-08T06:40:42;100460.25;;;18.47;70.32
72961;BME280;61141;46.204;19.774;2023-10-08T06:43:46;100454.03;;;18.66;69.18
72961;BME280;61141;46.204;19.774;2023-10-08T06:46:52;100462.50;;;18.82;68.02
72961;BME280;61141;46.204;19.774;2023-10-08T06:49:57;100466.16;;;18.99;67.19
72961;BME280;61141;46.204;19.774;2023-10-08T06:53:00;100458.63;;;18.99;67.29
72961;BME280;61141;46.204;19.774;2023-10-08T06:56:08;100448.13;;;19.10;65.56
72961;BME280;61141;46.204;19.774;2023-10-08T06:59:15;100447.97;;;19.17;65.36
72961;BME280;61141;46.204;19.774;2023-10-08T07:02:19;100442.06;;;19.15;65.03
72961;BME280;61141;46.204;19.774;2023-10-08T07:05:23;100448.31;;;19.19;65.17
72961;BME280;61141;46.204;19.774;2023-10-08T07:08:27;100449.56;;;19.18;66.36
72961;BME280;61141;46.204;19.774;2023-10-08T07:11:34;100433.25;;;19.20;64.84
72961;BME280;61141;46.204;19.774;2023-10-08T07:14:37;100438.88;;;19.36;64.43
72961;BME280;61141;46.204;19.774;2023-10-08T07:17:40;100457.97;;;19.34;65.15
72961;BME280;61141;46.204;19.774;2023-10-08T07:20:45;100468.22;;;19.41;63.71
72961;BME280;61141;46.204;19.774;2023-10-08T07:23:48;100462.94;;;19.47;63.46
72961;BME280;61141;46.204;19.774;2023-10-08T07:27:02;100483.31;;;19.60;62.76
72961;BME280;61141;46.204;19.774;2023-10-08T07:30:11;100471.91;;;19.74;63.55
72961;BME280;61141;46.204;19.774;2023-10-08T07:33:15;100476.47;;;19.84;61.45
72961;BME280;61141;46.204;19.774;2023-10-08T07:36:26;100471.47;;;19.95;60.15
72961;BME280;61141;46.204;19.774;2023-10-08T07:39:29;100468.97;;;20.01;60.47
72961;BME280;61141;46.204;19.774;2023-10-08T07:42:35;100471.50;;;20.11;60.21
72961;BME280;61141;46.204;19.774;2023-10-08T07:45:37;100484.63;;;20.30;58.95
72961;BME280;61141;46.204;19.774;2023-10-08T07:48:41;100477.72;;;20.55;58.49
72961;BME280;61141;46.204;19.774;2023-10-08T07:51:45;100464.41;;;20.78;57.07
72961;BME280;61141;46.204;19.774;2023-10-08T07:54:54;100470.75;;;21.11;56.33
72961;BME280;61141;46.204;19.774;2023-10-08T07:57:57;100467.22;;;21.39;54.30
72961;BME280;61141;46.204;19.774;2023-10-08T08:01:06;100459.97;;;21.71;52.37
72961;BME280;61141;46.204;19.774;2023-10-08T08:04:11;100486.81;;;21.93;51.45
72961;BME280;61141;46.204;19.774;2023-10-08T08:07:17;100472.09;;;22.05;51.30
72961;BME280;61141;46.204;19.774;2023-10-08T08:10:20;100439.41;;;22.06;51.66
72961;BME280;61141;46.204;19.774;2023-10-08T08:13:26;100461.63;;;22.22;51.86
72961;BME280;61141;46.204;19.774;2023-10-08T08:16:30;100465.22;;;22.22;51.17
72961;BME280;61141;46.204;19.774;2023-10-08T08:19:34;100459.16;;;22.49;51.48
72961;BME280;61141;46.204;19.774;2023-10-08T08:22:36;100458.94;;;22.56;50.10
72961;BME280;61141;46.204;19.774;2023-10-08T08:25:43;100455.59;;;22.61;50.28
72961;BME280;61141;46.204;19.774;2023-10-08T08:29:01;100460.41;;;22.61;49.18
72961;BME280;61141;46.204;19.774;2023-10-08T08:32:04;100441.06;;;22.54;49.10
72961;BME280;61141;46.204;19.774;2023-10-08T08:35:08;100449.78;;;22.68;49.01
72961;BME280;61141;46.204;19.774;2023-10-08T08:38:12;100464.09;;;22.70;47.48
72961;BME280;61141;46.204;19.774;2023-10-08T08:41:15;100455.59;;;22.74;47.86
72961;BME280;61141;46.204;19.774;2023-10-08T08:44:21;100439.72;;;22.58;48.11
72961;BME280;61141;46.204;19.774;2023-10-08T08:47:26;100457.06;;;22.66;48.09
72961;BME280;61141;46.204;19.774;2023-10-08T08:50:31;100468.31;;;22.62;48.31
72961;BME280;61141;46.204;19.774;2023-10-08T08:53:36;100458.84;;;22.47;48.29
72961;BME280;61141;46.204;19.774;2023-10-08T08:56:40;100480.16;;;22.41;48.78
72961;BME280;61141;46.204;19.774;2023-10-08T08:59:52;100479.72;;;22.30;48.79
72961;BME280;61141;46.204;19.774;2023-10-08T09:02:56;100477.81;;;22.27;49.00
72961;BME280;61141;46.204;19.774;2023-10-08T09:06:00;100468.78;;;22.23;49.68
72961;BME280;61141;46.204;19.774;2023-10-08T09:09:06;100478.94;;;22.30;49.49
72961;BME280;61141;46.204;19.774;2023-10-08T09:12:26;100477.16;;;22.36;49.00
72961;BME280;61141;46.204;19.774;2023-10-08T09:15:30;100468.34;;;22.50;48.23
72961;BME280;61141;46.204;19.774;2023-10-08T09:18:35;100483.63;;;22.58;48.49
72961;BME280;61141;46.204;19.774;2023-10-08T09:21:38;100472.81;;;22.47;48.53
72961;BME280;61141;46.204;19.774;2023-10-08T09:24:41;100446.66;;;22.54;48.64
72961;BME280;61141;46.204;19.774;2023-10-08T09:27:50;100469.78;;;22.54;48.58
72961;BME280;61141;46.204;19.774;2023-10-08T09:30:58;100479.84;;;22.77;48.20
72961;BME280;61141;46.204;19.774;2023-10-08T09:34:03;100476.78;;;22.97;47.66
72961;BME280;61141;46.204;19.774;2023-10-08T09:37:06;100471.84;;;23.01;47.13
72961;BME280;61141;46.204;19.774;2023-10-08T09:40:11;100473.38;;;23.14;47.50
72961;BME280;61141;46.204;19.774;2023-10-08T09:43:15;100479.59;;;22.84;47.69
72961;BME280;61141;46.204;19.774;2023-10-08T09:46:19;100461.97;;;22.74;48.02
72961;BME280;61141;46.204;19.774;2023-10-08T09:49:30;100455.81;;;22.54;48.53
72961;BME280;61141;46.204;19.774;2023-10-08T09:52:39;100466.88;;;22.58;48.61
72961;BME280;61141;46.204;19.774;2023-10-08T09:55:53;100466.97;;;22.54;48.28
72961;BME280;61141;46.204;19.774;2023-10-08T09:58:57;100461.06;;;22.65;48.37
72961;BME280;61141;46.204;19.774;2023-10-08T10:02:02;100475.56;;;22.85;48.10
72961;BME280;61141;46.204;19.774;2023-10-08T10:05:10;100490.97;;;23.02;47.69
72961;BME280;61141;46.204;19.774;2023-10-08T10:08:14;100481.22;;;23.07;47.66
72961;BME280;61141;46.204;19.774;2023-10-08T10:11:17;100477.75;;;23.15;47.38
72961;BME280;61141;46.204;19.774;2023-10-08T10:14:24;100489.88;;;23.00;47.81
72961;BME280;61141;46.204;19.774;2023-10-08T10:17:28;100487.87;;;22.88;47.77
72961;BME280;61141;46.204;19.774;2023-10-08T10:20:52;100491.41;;;23.01;48.98
72961;BME280;61141;46.204;19.774;2023-10-08T10:23:57;100488.19;;;23.02;48.17
72961;BME280;61141;46.204;19.774;2023-10-08T10:27:11;100500.63;;;23.23;48.31
72961;BME280;61141;46.204;19.774;2023-10-08T10:30:14;100509.44;;;23.47;47.66
72961;BME280;61141;46.204;19.774;2023-10-08T10:33:32;100497.75;;;23.61;47.33
72961;BME280;61141;46.204;19.774;2023-10-08T10:36:40;100499.84;;;23.69;47.27
72961;BME280;61141;46.204;19.774;2023-10-08T10:39:53;100503.84;;;23.68;46.99
72961;BME280;61141;46.204;19.774;2023-10-08T10:42:58;100518.81;;;23.74;46.98
72961;BME280;61141;46.204;19.774;2023-10-08T10:46:03;100515.16;;;23.65;47.26
72961;BME280;61141;46.204;19.774;2023-10-08T10:49:26;100526.47;;;23.61;47.58
72961;BME280;61141;46.204;19.774;2023-10-08T10:52:35;100537.31;;;23.25;47.92
72961;BME280;61141;46.204;19.774;2023-10-08T10:55:47;100523.25;;;23.16;48.36
72961;BME280;61141;46.204;19.774;2023-10-08T10:59:04;100533.66;;;23.15;49.43
72961;BME280;61141;46.204;19.774;2023-10-08T11:02:27;100541.81;;;23.10;49.04
72961;BME280;61141;46.204;19.774;2023-10-08T11:05:34;100522.69;;;23.21;48.95
72961;BME280;61141;46.204;19.774;2023-10-08T11:08:42;100531.31;;;23.61;48.75
72961;BME280;61141;46.204;19.774;2023-10-08T11:11:49;100522.94;;;23.82;47.79
72961;BME280;61141;46.204;19.774;2023-10-08T11:14:58;100515.50;;;23.88;47.69
72961;BME280;61141;46.204;19.774;2023-10-08T11:18:00;100520.03;;;23.95;47.85
72961;BME280;61141;46.204;19.774;2023-10-08T11:21:08;100517.84;;;23.90;47.56
72961;BME280;61141;46.204;19.774;2023-10-08T11:24:31;100535.81;;;24.02;49.36
72961;BME280;61141;46.204;19.774;2023-10-08T11:27:37;100505.34;;;23.82;47.87
72961;BME280;61141;46.204;19.774;2023-10-08T11:30:41;100506.72;;;23.77;47.08
72961;BME280;61141;46.204;19.774;2023-10-08T11:33:46;100529.22;;;23.74;47.24
72961;BME280;61141;46.204;19.774;2023-10-08T11:36:58;100527.47;;;23.67;47.32
72961;BME280;61141;46.204;19.774;2023-10-08T11:40:02;100528.94;;;23.59;47.44
72961;BME280;61141;46.204;19.774;2023-10-08T11:43:19;100535.59;;;23.53;47.49
72961;BME280;61141;46.204;19.774;2023-10-08T11:49:28;100531.75;;;23.59;47.66
72961;BME280;61141;46.204;19.774;2023-10-08T11:52:35;100540.94;;;23.60;48.46
72961;BME280;61141;46.204;19.774;2023-10-08T11:55:43;100542.50;;;23.61;48.44
72961;BME280;61141;46.204;19.774;2023-10-08T11:58:47;100553.66;;;23.39;48.38
72961;BME280;61141;46.204;19.774;2023-10-08T12:01:50;100568.69;;;23.54;48.46
72961;BME280;61141;46.204;19.774;2023-10-08T12:04:54;100559.25;;;23.39;48.27
72961;BME280;61141;46.204;19.774;2023-10-08T12:08:00;100569.84;;;23.44;48.37
72961;BME280;61141;46.204;19.774;2023-10-08T12:11:03;100564.91;;;23.48;48.36
72961;BME280;61141;46.204;19.774;2023-10-08T12:14:06;100563.25;;;23.38;48.71
72961;BME280;61141;46.204;19.774;2023-10-08T12:17:09;100564.12;;;23.35;49.40
72961;BME280;61141;46.204;19.774;2023-10-08T12:20:14;100575.34;;;23.10;49.47
72961;BME280;61141;46.204;19.774;2023-10-08T12:23:37;100568.34;;;23.05;49.93
72961;BME280;61141;46.204;19.774;2023-10-08T12:26:41;100561.41;;;22.97;50.01
72961;BME280;61141;46.204;19.774;2023-10-08T12:29:50;100569.88;;;23.06;50.13
72961;BME280;61141;46.204;19.774;2023-10-08T12:32:53;100563.28;;;23.13;50.19
72961;BME280;61141;46.204;19.774;2023-10-08T12:35:56;100571.56;;;23.04;50.12
72961;BME280;61141;46.204;19.774;2023-10-08T12:38:59;100565.06;;;23.07;50.43
72961;BME280;61141;46.204;19.774;2023-10-08T12:42:02;100563.75;;;22.99;50.50
72961;BME280;61141;46.204;19.774;2023-10-08T12:45:07;100575.34;;;23.10;50.46
72961;BME280;61141;46.204;19.774;2023-10-08T12:48:15;100559.91;;;23.18;50.01
72961;BME280;61141;46.204;19.774;2023-10-08T12:51:18;100577.22;;;23.25;50.15
72961;BME280;61141;46.204;19.774;2023-10-08T12:54:27;100576.13;;;23.23;50.37
72961;BME280;61141;46.204;19.774;2023-10-08T12:57:35;100578.59;;;23.21;50.45
72961;BME280;61141;46.204;19.774;2023-10-08T13:00:40;100575.34;;;23.10;50.73
72961;BME280;61141;46.204;19.774;2023-10-08T13:03:52;100604.66;;;22.93;51.15
72961;BME280;61141;46.204;19.774;2023-10-08T13:06:58;100594.16;;;22.97;51.39
72961;BME280;61141;46.204;19.774;2023-10-08T13:10:04;100598.16;;;22.96;51.71
72961;BME280;61141;46.204;19.774;2023-10-08T13:13:07;100601.41;;;22.69;52.64
72961;BME280;61141;46.204;19.774;2023-10-08T13:16:10;100606.28;;;22.52;53.09
72961;BME280;61141;46.204;19.774;2023-10-08T13:19:13;100596.75;;;22.37;53.70
72961;BME280;61141;46.204;19.774;2023-10-08T13:22:18;100614.34;;;22.21;54.16
72961;BME280;61141;46.204;19.774;2023-10-08T13:25:23;100617.63;;;22.04;54.67
72961;BME280;61141;46.204;19.774;2023-10-08T13:28:25;100622.72;;;21.93;55.18
72961;BME280;61141;46.204;19.774;2023-10-08T13:31:29;100636.84;;;21.86;55.53
72961;BME280;61141;46.204;19.774;2023-10-08T13:34:32;100656.12;;;21.80;55.59
72961;BME280;61141;46.204;19.774;2023-10-08T13:37:35;100670.06;;;21.64;55.24
72961;BME280;61141;46.204;19.774;2023-10-08T13:40:38;100673.66;;;21.48;55.23
72961;BME280;61141;46.204;19.774;2023-10-08T13:43:50;100662.50;;;21.48;54.89
72961;BME280;61141;46.204;19.774;2023-10-08T13:46:56;100647.53;;;21.42;54.22
72961;BME280;61141;46.204;19.774;2023-10-08T13:50:01;100642.81;;;21.55;53.94
72961;BME280;61141;46.204;19.774;2023-10-08T13:53:13;100643.31;;;21.66;53.81
72961;BME280;61141;46.204;19.774;2023-10-08T13:56:16;100650.47;;;21.67;52.17
72961;BME280;61141;46.204;19.774;2023-10-08T13:59:21;100654.75;;;21.40;51.31
72961;BME280;61141;46.204;19.774;2023-10-08T14:02:27;100662.16;;;21.46;50.72
72961;BME280;61141;46.204;19.774;2023-10-08T14:05:33;100652.31;;;21.58;50.72
72961;BME280;61141;46.204;19.774;2023-10-08T14:08:36;100670.69;;;21.72;50.72
72961;BME280;61141;46.204;19.774;2023-10-08T14:11:41;100647.25;;;21.69;50.29
72961;BME280;61141;46.204;19.774;2023-10-08T14:14:44;100661.63;;;21.67;49.99
72961;BME280;61141;46.204;19.774;2023-10-08T14:17:49;100655.62;;;21.53;49.87
72961;BME280;61141;46.204;19.774;2023-10-08T14:20:56;100650.31;;;21.58;49.76
72961;BME280;61141;46.204;19.774;2023-10-08T14:23:59;100655.34;;;21.63;49.86
72961;BME280;61141;46.204;19.774;2023-10-08T14:27:17;100626.28;;;21.48;49.66
72961;BME280;61141;46.204;19.774;2023-10-08T14:30:28;100637.75;;;21.50;49.19
72961;BME280;61141;46.204;19.774;2023-10-08T14:33:32;100650.06;;;21.37;49.43
72961;BME280;61141;46.204;19.774;2023-10-08T14:36:46;100651.34;;;21.32;49.13
72961;BME280;61141;46.204;19.774;2023-10-08T14:40:07;100650.37;;;21.39;49.25
72961;BME280;61141;46.204;19.774;2023-10-08T14:43:29;100657.09;;;21.25;48.31
72961;BME280;61141;46.204;19.774;2023-10-08T14:46:36;100678.59;;;21.08;48.54
72961;BME280;61141;46.204;19.774;2023-10-08T14:49:41;100683.09;;;20.63;49.32
72961;BME280;61141;46.204;19.774;2023-10-08T14:52:45;100698.81;;;20.34;49.49
72961;BME280;61141;46.204;19.774;2023-10-08T14:55:49;100699.59;;;20.34;50.03
72961;BME280;61141;46.204;19.774;2023-10-08T14:58:54;100701.75;;;20.04;50.84
72961;BME280;61141;46.204;19.774;2023-10-08T15:01:57;100722.19;;;19.93;51.66
72961;BME280;61141;46.204;19.774;2023-10-08T15:05:00;100731.16;;;19.55;52.44
72961;BME280;61141;46.204;19.774;2023-10-08T15:08:04;100738.13;;;19.40;53.12
72961;BME280;61141;46.204;19.774;2023-10-08T15:11:13;100744.34;;;19.20;53.55
72961;BME280;61141;46.204;19.774;2023-10-08T15:14:18;100761.19;;;19.06;53.38
72961;BME280;61141;46.204;19.774;2023-10-08T15:17:22;100764.56;;;18.91;54.15
72961;BME280;61141;46.204;19.774;2023-10-08T15:20:25;100762.19;;;18.89;54.03
72961;BME280;61141;46.204;19.774;2023-10-08T15:23:28;100766.25;;;18.81;54.27
72961;BME280;61141;46.204;19.774;2023-10-08T15:26:34;100773.09;;;18.73;54.35
72961;BME280;61141;46.204;19.774;2023-10-08T15:29:37;100775.63;;;18.60;55.51
72961;BME280;61141;46.204;19.774;2023-10-08T15:32:41;100783.25;;;18.53;56.45
72961;BME280;61141;46.204;19.774;2023-10-08T15:35:46;100788.09;;;18.42;57.51
72961;BME280;61141;46.204;19.774;2023-10-08T15:38:49;100797.94;;;18.50;57.37
72961;BME280;61141;46.204;19.774;2023-10-08T15:41:52;100797.75;;;18.23;58.23
72961;BME280;61141;46.204;19.774;2023-10-08T15:44:55;100811.34;;;18.14;59.05
72961;BME280;61141;46.204;19.774;2023-10-08T15:47:58;100821.62;;;18.13;59.01
72961;BME280;61141;46.204;19.774;2023-10-08T15:51:02;100823.31;;;18.00;59.48
72961;BME280;61141;46.204;19.774;2023-10-08T15:54:05;100828.81;;;18.07;59.64
72961;BME280;61141;46.204;19.774;2023-10-08T15:57:08;100836.06;;;17.91;59.55
72961;BME280;61141;46.204;19.774;2023-10-08T16:00:12;100844.78;;;17.89;59.66
72961;BME280;61141;46.204;19.774;2023-10-08T16:03:16;100835.47;;;17.58;60.17
72961;BME280;61141;46.204;19.774;2023-10-08T16:06:20;100831.50;;;17.63;60.01
72961;BME280;61141;46.204;19.774;2023-10-08T16:09:23;100856.06;;;17.54;60.18
72961;BME280;61141;46.204;19.774;2023-10-08T16:12:25;100861.63;;;17.50;59.34